sensor_id;sensor_type;location;lat;lon;timestamp;temperature;humidity
24148;DHT22;12309;51.450;-2.624;2023-08-08T00:00:55;15.70;99.90
24148;DHT22;12309;51.450;-2.624;2023-08-08T00:15:31;15.60;99.90
24148;DHT22;12309;51.450;-2.624;2023-08-08T00:17:56;15.60;99.90
24148;DHT22;12309;51.450;-2.624;2023-08-08T00:20:22;15.60;99.90
24148;DHT22;12309;51.450;-2.624;2023-08-08T00:22:47;15.30;99.90
24148;DHT22;12309;51.450;-2.624;2023-08-08T00:25:13;15.40;99.90
24148;DHT22;12309;51.450;-2.624;2023-08-08T00:27:39;15.40;99.90
24148;DHT22;12309;51.450;-2.624;2023-08-08T00:30:10;15.40;99.90
24148;DHT22;12309;51.450;-2.624;2023-08-08T00:32:36;15.40;99.90
24148;DHT22;12309;51.450;-2.624;2023-08-08T00:35:01;15.40;99.90
24148;DHT22;12309;51.450;-2.624;2023-08-08T00:37:27;15.40;99.90
24148;DHT22;12309;51.450;-2.624;2023-08-08T00:39:52;15.30;99.90
24148;DHT22;12309;51.450;-2.624;2023-08-08T00:42:18;15.30;99.90
24148;DHT22;12309;51.450;-2.624;2023-08-08T00:44:43;15.50;99.90
24148;DHT22;12309;51.450;-2.624;2023-08-08T00:47:09;15.40;99.90
24148;DHT22;12309;51.450;-2.624;2023-08-08T00:49:36;15.40;99.90
24148;DHT22;12309;51.450;-2.624;2023-08-08T00:52:02;15.40;99.90
24148;DHT22;12309;51.450;-2.624;2023-08-08T00:54:28;15.30;99.90
24148;DHT22;12309;51.450;-2.624;2023-08-08T00:56:54;15.50;99.90
24148;DHT22;12309;51.450;-2.624;2023-08-08T00:59:19;15.20;99.90
24148;DHT22;12309;51.450;-2.624;2023-08-08T01:01:45;15.30;99.90
24148;DHT22;12309;51.450;-2.624;2023-08-08T01:04:12;15.20;99.90
24148;DHT22;12309;51.450;-2.624;2023-08-08T01:09:32;15.20;99.90
24148;DHT22;12309;51.450;-2.624;2023-08-08T01:12:02;15.20;99.90
24148;DHT22;12309;51.450;-2.624;2023-08-08T01:14:29;15.20;99.90
24148;DHT22;12309;51.450;-2.624;2023-08-08T01:16:56;15.40;99.90
24148;DHT22;12309;51.450;-2.624;2023-08-08T01:19:28;15.30;99.90
24148;DHT22;12309;51.450;-2.624;2023-08-08T01:21:54;15.40;99.90
24148;DHT22;12309;51.450;-2.624;2023-08-08T01:24:23;15.30;99.90
24148;DHT22;12309;51.450;-2.624;2023-08-08T01:26:53;15.50;99.90
24148;DHT22;12309;51.450;-2.624;2023-08-08T01:29:19;15.20;99.90
24148;DHT22;12309;51.450;-2.624;2023-08-08T01:34:10;15.30;99.90
24148;DHT22;12309;51.450;-2.624;2023-08-08T01:36:56;15.10;99.90
24148;DHT22;12309;51.450;-2.624;2023-08-08T01:39:25;15.30;99.90
24148;DHT22;12309;51.450;-2.624;2023-08-08T01:41:54;15.30;99.90
24148;DHT22;12309;51.450;-2.624;2023-08-08T01:44:21;15.20;99.90
24148;DHT22;12309;51.450;-2.624;2023-08-08T01:46:47;15.30;99.90
24148;DHT22;12309;51.450;-2.624;2023-08-08T01:49:13;15.40;99.90
24148;DHT22;12309;51.450;-2.624;2023-08-08T01:51:38;15.30;99.90
24148;DHT22;12309;51.450;-2.624;2023-08-08T01:56:30;15.20;99.90
24148;DHT22;12309;51.450;-2.624;2023-08-08T02:01:22;15.30;99.90
24148;DHT22;12309;51.450;-2.624;2023-08-08T02:03:47;15.40;99.90
24148;DHT22;12309;51.450;-2.624;2023-08-08T02:06:13;15.20;99.90
24148;DHT22;12309;51.450;-2.624;2023-08-08T02:08:39;15.30;99.90
24148;DHT22;12309;51.450;-2.624;2023-08-08T02:23:14;15.40;99.90
24148;DHT22;12309;51.450;-2.624;2023-08-08T02:25:40;15.10;99.90
24148;DHT22;12309;51.450;-2.624;2023-08-08T02:30:32;15.10;99.90
24148;DHT22;12309;51.450;-2.624;2023-08-08T02:35:23;14.90;99.90
24148;DHT22;12309;51.450;-2.624;2023-08-08T02:40:15;14.90;99.90
24148;DHT22;12309;51.450;-2.624;2023-08-08T02:45:07;14.70;99.90
24148;DHT22;12309;51.450;-2.624;2023-08-08T02:54:51;14.60;99.90
24148;DHT22;12309;51.450;-2.624;2023-08-08T03:02:08;14.60;99.90
24148;DHT22;12309;51.450;-2.624;2023-08-08T03:09:30;14.50;99.90
24148;DHT22;12309;51.450;-2.624;2023-08-08T03:11:55;14.80;99.90
24148;DHT22;12309;51.450;-2.624;2023-08-08T03:14:21;14.80;99.90
24148;DHT22;12309;51.450;-2.624;2023-08-08T03:19:13;14.50;99.90
24148;DHT22;12309;51.450;-2.624;2023-08-08T03:21:38;14.50;99.90
24148;DHT22;12309;51.450;-2.624;2023-08-08T03:24:04;14.40;99.90
24148;DHT22;12309;51.450;-2.624;2023-08-08T03:36:15;14.50;99.90
24148;DHT22;12309;51.450;-2.624;2023-08-08T03:38:41;14.40;99.90
24148;DHT22;12309;51.450;-2.624;2023-08-08T03:46:01;14.00;99.90
24148;DHT22;12309;51.450;-2.624;2023-08-08T03:48:27;14.30;99.90
24148;DHT22;12309;51.450;-2.624;2023-08-08T03:50:52;14.40;99.90
24148;DHT22;12309;51.450;-2.624;2023-08-08T03:53:18;14.20;99.90
24148;DHT22;12309;51.450;-2.624;2023-08-08T03:58:10;14.40;99.90
24148;DHT22;12309;51.450;-2.624;2023-08-08T04:07:53;14.30;99.90
24148;DHT22;12309;51.450;-2.624;2023-08-08T04:17:37;14.50;99.90
24148;DHT22;12309;51.450;-2.624;2023-08-08T04:24:56;14.10;99.90
24148;DHT22;12309;51.450;-2.624;2023-08-08T04:27:22;14.40;99.90
24148;DHT22;12309;51.450;-2.624;2023-08-08T04:29:48;14.40;99.90
24148;DHT22;12309;51.450;-2.624;2023-08-08T04:32:14;14.20;99.90
24148;DHT22;12309;51.450;-2.624;2023-08-08T04:44:23;14.40;99.90
24148;DHT22;12309;51.450;-2.624;2023-08-08T04:49:15;14.50;99.90
24148;DHT22;12309;51.450;-2.624;2023-08-08T04:51:40;14.50;99.90
24148;DHT22;12309;51.450;-2.624;2023-08-08T04:54:06;14.40;99.90
24148;DHT22;12309;51.450;-2.624;2023-08-08T04:56:32;14.40;99.90
24148;DHT22;12309;51.450;-2.624;2023-08-08T04:58:57;14.30;99.90
24148;DHT22;12309;51.450;-2.624;2023-08-08T05:01:23;14.80;99.90
24148;DHT22;12309;51.450;-2.624;2023-08-08T05:03:48;14.60;99.90
24148;DHT22;12309;51.450;-2.624;2023-08-08T05:06:15;14.70;99.90
24148;DHT22;12309;51.450;-2.624;2023-08-08T05:11:06;14.60;99.90
24148;DHT22;12309;51.450;-2.624;2023-08-08T05:13:32;14.80;99.90
24148;DHT22;12309;51.450;-2.624;2023-08-08T05:15:57;14.60;99.90
24148;DHT22;12309;51.450;-2.624;2023-08-08T05:20:49;14.80;99.90
24148;DHT22;12309;51.450;-2.624;2023-08-08T05:23:15;14.80;99.90
24148;DHT22;12309;51.450;-2.624;2023-08-08T05:25:40;14.80;99.90
24148;DHT22;12309;51.450;-2.624;2023-08-08T05:28:06;14.70;99.90
24148;DHT22;12309;51.450;-2.624;2023-08-08T05:32:58;14.80;99.90
24148;DHT22;12309;51.450;-2.624;2023-08-08T05:35:24;14.90;99.90
24148;DHT22;12309;51.450;-2.624;2023-08-08T05:42:42;15.10;99.90
24148;DHT22;12309;51.450;-2.624;2023-08-08T05:47:34;15.20;99.90
24148;DHT22;12309;51.450;-2.624;2023-08-08T05:52:25;15.00;99.90
24148;DHT22;12309;51.450;-2.624;2023-08-08T05:57:17;15.10;99.90
24148;DHT22;12309;51.450;-2.624;2023-08-08T05:59:42;14.90;99.90
24148;DHT22;12309;51.450;-2.624;2023-08-08T06:02:10;15.10;99.90
24148;DHT22;12309;51.450;-2.624;2023-08-08T06:04:36;15.20;99.90
24148;DHT22;12309;51.450;-2.624;2023-08-08T06:07:01;15.20;99.90
24148;DHT22;12309;51.450;-2.624;2023-08-08T06:09:27;15.30;99.90
24148;DHT22;12309;51.450;-2.624;2023-08-08T06:11:53;15.40;99.90
24148;DHT22;12309;51.450;-2.624;2023-08-08T06:21:40;15.40;99.90
24148;DHT22;12309;51.450;-2.624;2023-08-08T06:38:42;15.80;99.90
24148;DHT22;12309;51.450;-2.624;2023-08-08T06:41:08;15.80;99.90
24148;DHT22;12309;51.450;-2.624;2023-08-08T06:43:34;15.80;99.90
24148;DHT22;12309;51.450;-2.624;2023-08-08T06:50:53;16.10;99.90
24148;DHT22;12309;51.450;-2.624;2023-08-08T06:55:44;15.60;99.90
24148;DHT22;12309;51.450;-2.624;2023-08-08T07:00:36;15.90;99.90
24148;DHT22;12309;51.450;-2.624;2023-08-08T07:07:54;15.80;99.90
24148;DHT22;12309;51.450;-2.624;2023-08-08T07:10:20;16.00;99.90
24148;DHT22;12309;51.450;-2.624;2023-08-08T07:12:46;16.10;99.90
24148;DHT22;12309;51.450;-2.624;2023-08-08T07:15:12;15.90;99.90
24148;DHT22;12309;51.450;-2.624;2023-08-08T07:20:04;16.10;99.90
24148;DHT22;12309;51.450;-2.624;2023-08-08T07:22:31;16.00;99.90
24148;DHT22;12309;51.450;-2.624;2023-08-08T07:24:58;16.10;99.90
24148;DHT22;12309;51.450;-2.624;2023-08-08T07:27:23;16.00;99.90
24148;DHT22;12309;51.450;-2.624;2023-08-08T07:29:49;16.30;99.90
24148;DHT22;12309;51.450;-2.624;2023-08-08T07:39:33;16.30;99.90
24148;DHT22;12309;51.450;-2.624;2023-08-08T07:44:24;16.50;99.90
24148;DHT22;12309;51.450;-2.624;2023-08-08T07:46:50;16.60;99.90
24148;DHT22;12309;51.450;-2.624;2023-08-08T07:51:42;16.30;99.90
24148;DHT22;12309;51.450;-2.624;2023-08-08T07:56:35;16.30;99.90
24148;DHT22;12309;51.450;-2.624;2023-08-08T08:01:27;16.70;99.90
24148;DHT22;12309;51.450;-2.624;2023-08-08T08:03:53;16.30;99.90
24148;DHT22;12309;51.450;-2.624;2023-08-08T08:08:45;16.40;99.90
24148;DHT22;12309;51.450;-2.624;2023-08-08T08:11:10;16.40;99.90
24148;DHT22;12309;51.450;-2.624;2023-08-08T08:16:04;16.40;99.90
24148;DHT22;12309;51.450;-2.624;2023-08-08T08:18:30;16.20;99.90
24148;DHT22;12309;51.450;-2.624;2023-08-08T08:20:56;16.10;99.90
24148;DHT22;12309;51.450;-2.624;2023-08-08T08:25:47;16.20;99.90
24148;DHT22;12309;51.450;-2.624;2023-08-08T08:28:14;16.50;99.90
24148;DHT22;12309;51.450;-2.624;2023-08-08T08:30:40;16.50;99.90
24148;DHT22;12309;51.450;-2.624;2023-08-08T08:33:06;16.50;99.90
24148;DHT22;12309;51.450;-2.624;2023-08-08T08:35:34;16.50;99.90
24148;DHT22;12309;51.450;-2.624;2023-08-08T08:37:59;16.40;99.90
24148;DHT22;12309;51.450;-2.624;2023-08-08T08:40:25;16.20;99.90
24148;DHT22;12309;51.450;-2.624;2023-08-08T08:42:52;16.10;99.90
24148;DHT22;12309;51.450;-2.624;2023-08-08T08:45:20;16.10;99.90
24148;DHT22;12309;51.450;-2.624;2023-08-08T08:47:46;16.10;99.90
24148;DHT22;12309;51.450;-2.624;2023-08-08T08:50:15;16.10;99.90
24148;DHT22;12309;51.450;-2.624;2023-08-08T08:52:42;17.40;99.90
24148;DHT22;12309;51.450;-2.624;2023-08-08T08:57:35;16.00;99.90
24148;DHT22;12309;51.450;-2.624;2023-08-08T09:00:01;15.70;99.90
24148;DHT22;12309;51.450;-2.624;2023-08-08T09:04:54;15.80;99.90
24148;DHT22;12309;51.450;-2.624;2023-08-08T09:07:21;16.10;99.90
24148;DHT22;12309;51.450;-2.624;2023-08-08T09:12:14;16.00;99.90
24148;DHT22;12309;51.450;-2.624;2023-08-08T09:14:42;16.10;99.90
24148;DHT22;12309;51.450;-2.624;2023-08-08T09:17:11;16.00;99.90
24148;DHT22;12309;51.450;-2.624;2023-08-08T09:19:44;16.30;99.90
24148;DHT22;12309;51.450;-2.624;2023-08-08T09:22:12;16.40;99.90
24148;DHT22;12309;51.450;-2.624;2023-08-08T09:24:40;16.50;99.90
24148;DHT22;12309;51.450;-2.624;2023-08-08T09:27:07;16.70;99.90
24148;DHT22;12309;51.450;-2.624;2023-08-08T09:32:02;16.60;99.90
24148;DHT22;12309;51.450;-2.624;2023-08-08T09:34:28;16.60;99.90
24148;DHT22;12309;51.450;-2.624;2023-08-08T09:36:54;16.70;99.90
24148;DHT22;12309;51.450;-2.624;2023-08-08T09:39:20;16.50;99.90
24148;DHT22;12309;51.450;-2.624;2023-08-08T09:44:12;16.70;99.90
24148;DHT22;12309;51.450;-2.624;2023-08-08T09:46:39;16.70;99.90
24148;DHT22;12309;51.450;-2.624;2023-08-08T09:49:06;16.70;99.90
24148;DHT22;12309;51.450;-2.624;2023-08-08T09:51:31;16.60;99.90
24148;DHT22;12309;51.450;-2.624;2023-08-08T09:53:59;16.60;99.90
24148;DHT22;12309;51.450;-2.624;2023-08-08T09:56:25;16.80;99.90
24148;DHT22;12309;51.450;-2.624;2023-08-08T09:58:52;16.70;99.90
24148;DHT22;12309;51.450;-2.624;2023-08-08T10:01:19;16.80;99.90
24148;DHT22;12309;51.450;-2.624;2023-08-08T10:03:45;16.80;99.90
24148;DHT22;12309;51.450;-2.624;2023-08-08T10:06:12;16.80;99.90
24148;DHT22;12309;51.450;-2.624;2023-08-08T10:08:38;16.70;99.90
24148;DHT22;12309;51.450;-2.624;2023-08-08T10:11:05;16.70;99.90
24148;DHT22;12309;51.450;-2.624;2023-08-08T10:13:32;16.70;99.90
24148;DHT22;12309;51.450;-2.624;2023-08-08T10:15:58;16.50;99.90
24148;DHT22;12309;51.450;-2.624;2023-08-08T10:18:29;17.20;99.90
24148;DHT22;12309;51.450;-2.624;2023-08-08T10:20:57;17.40;99.90
24148;DHT22;12309;51.450;-2.624;2023-08-08T10:23:23;17.00;99.90
24148;DHT22;12309;51.450;-2.624;2023-08-08T10:25:51;16.90;99.90
24148;DHT22;12309;51.450;-2.624;2023-08-08T10:28:20;17.10;99.90
24148;DHT22;12309;51.450;-2.624;2023-08-08T10:30:52;17.20;99.90
24148;DHT22;12309;51.450;-2.624;2023-08-08T10:33:22;17.20;99.90
24148;DHT22;12309;51.450;-2.624;2023-08-08T10:35:56;17.20;99.90
24148;DHT22;12309;51.450;-2.624;2023-08-08T10:38:26;17.40;99.90
24148;DHT22;12309;51.450;-2.624;2023-08-08T10:41:02;17.70;99.90
24148;DHT22;12309;51.450;-2.624;2023-08-08T10:43:31;17.40;99.90
24148;DHT22;12309;51.450;-2.624;2023-08-08T10:46:03;17.50;99.90
24148;DHT22;12309;51.450;-2.624;2023-08-08T10:48:29;17.70;99.90
24148;DHT22;12309;51.450;-2.624;2023-08-08T10:50:59;17.90;99.90
24148;DHT22;12309;51.450;-2.624;2023-08-08T10:53:26;18.20;99.90
24148;DHT22;12309;51.450;-2.624;2023-08-08T10:56:03;18.30;99.90
24148;DHT22;12309;51.450;-2.624;2023-08-08T11:01:02;18.50;99.90
24148;DHT22;12309;51.450;-2.624;2023-08-08T11:03:29;18.60;99.90
24148;DHT22;12309;51.450;-2.624;2023-08-08T11:05:55;18.30;99.90
24148;DHT22;12309;51.450;-2.624;2023-08-08T11:08:21;18.30;99.90
24148;DHT22;12309;51.450;-2.624;2023-08-08T11:10:52;18.30;99.90
24148;DHT22;12309;51.450;-2.624;2023-08-08T11:13:18;18.20;99.90
24148;DHT22;12309;51.450;-2.624;2023-08-08T11:15:43;18.60;99.90
24148;DHT22;12309;51.450;-2.624;2023-08-08T11:18:09;18.30;99.90
24148;DHT22;12309;51.450;-2.624;2023-08-08T11:20:36;18.40;99.90
24148;DHT22;12309;51.450;-2.624;2023-08-08T11:23:02;18.50;99.90
24148;DHT22;12309;51.450;-2.624;2023-08-08T11:25:30;18.30;99.90
24148;DHT22;12309;51.450;-2.624;2023-08-08T11:27:57;18.40;99.90
24148;DHT22;12309;51.450;-2.624;2023-08-08T11:30:27;18.00;99.90
24148;DHT22;12309;51.450;-2.624;2023-08-08T11:32:53;18.00;99.90
24148;DHT22;12309;51.450;-2.624;2023-08-08T11:35:22;18.30;99.90
24148;DHT22;12309;51.450;-2.624;2023-08-08T11:37:50;18.50;99.90
24148;DHT22;12309;51.450;-2.624;2023-08-08T11:40:17;18.30;99.90
24148;DHT22;12309;51.450;-2.624;2023-08-08T11:42:43;18.00;99.90
24148;DHT22;12309;51.450;-2.624;2023-08-08T11:45:11;18.30;99.90
24148;DHT22;12309;51.450;-2.624;2023-08-08T11:50:06;18.70;99.90
24148;DHT22;12309;51.450;-2.624;2023-08-08T11:52:32;18.00;99.90
24148;DHT22;12309;51.450;-2.624;2023-08-08T11:54:59;18.10;99.90
24148;DHT22;12309;51.450;-2.624;2023-08-08T11:57:27;18.20;99.90
24148;DHT22;12309;51.450;-2.624;2023-08-08T11:59:54;18.10;99.90
24148;DHT22;12309;51.450;-2.624;2023-08-08T12:02:19;18.30;99.90
24148;DHT22;12309;51.450;-2.624;2023-08-08T12:04:46;18.30;99.90
24148;DHT22;12309;51.450;-2.624;2023-08-08T12:07:11;18.60;99.90
24148;DHT22;12309;51.450;-2.624;2023-08-08T12:09:37;18.60;99.90
24148;DHT22;12309;51.450;-2.624;2023-08-08T12:12:04;19.40;99.90
24148;DHT22;12309;51.450;-2.624;2023-08-08T12:14:35;19.50;99.90
24148;DHT22;12309;51.450;-2.624;2023-08-08T12:17:01;20.00;99.90
24148;DHT22;12309;51.450;-2.624;2023-08-08T12:24:20;19.50;99.90
24148;DHT22;12309;51.450;-2.624;2023-08-08T12:26:46;19.20;99.90
24148;DHT22;12309;51.450;-2.624;2023-08-08T12:29:12;19.40;99.90
24148;DHT22;12309;51.450;-2.624;2023-08-08T12:31:38;19.30;99.90
24148;DHT22;12309;51.450;-2.624;2023-08-08T12:34:03;19.40;99.90
24148;DHT22;12309;51.450;-2.624;2023-08-08T12:36:30;19.50;99.90
24148;DHT22;12309;51.450;-2.624;2023-08-08T12:38:56;19.60;99.90
24148;DHT22;12309;51.450;-2.624;2023-08-08T12:41:23;19.50;99.90
24148;DHT22;12309;51.450;-2.624;2023-08-08T12:46:16;19.90;99.90
24148;DHT22;12309;51.450;-2.624;2023-08-08T12:48:42;19.80;99.90
24148;DHT22;12309;51.450;-2.624;2023-08-08T12:56:02;19.60;99.90
24148;DHT22;12309;51.450;-2.624;2023-08-08T12:58:27;19.50;99.90
24148;DHT22;12309;51.450;-2.624;2023-08-08T13:03:19;19.30;99.90
24148;DHT22;12309;51.450;-2.624;2023-08-08T13:10:39;19.20;99.90
24148;DHT22;12309;51.450;-2.624;2023-08-08T13:15:31;19.60;99.90
24148;DHT22;12309;51.450;-2.624;2023-08-08T13:20:24;19.70;99.90
24148;DHT22;12309;51.450;-2.624;2023-08-08T13:22:50;19.70;99.90
24148;DHT22;12309;51.450;-2.624;2023-08-08T13:27:44;19.30;99.90
24148;DHT22;12309;51.450;-2.624;2023-08-08T13:30:10;19.40;99.90
24148;DHT22;12309;51.450;-2.624;2023-08-08T13:37:28;19.80;99.90
24148;DHT22;12309;51.450;-2.624;2023-08-08T13:47:12;19.90;99.90
24148;DHT22;12309;51.450;-2.624;2023-08-08T13:52:04;19.60;99.90
24148;DHT22;12309;51.450;-2.624;2023-08-08T13:56:56;19.90;99.90
24148;DHT22;12309;51.450;-2.624;2023-08-08T13:59:21;19.40;99.90
24148;DHT22;12309;51.450;-2.624;2023-08-08T14:01:47;19.90;99.90
24148;DHT22;12309;51.450;-2.624;2023-08-08T14:04:12;19.90;99.90
24148;DHT22;12309;51.450;-2.624;2023-08-08T14:06:38;20.20;99.90
24148;DHT22;12309;51.450;-2.624;2023-08-08T14:09:05;20.00;99.90
24148;DHT22;12309;51.450;-2.624;2023-08-08T14:11:31;19.70;99.90
24148;DHT22;12309;51.450;-2.624;2023-08-08T14:13:56;20.20;99.90
24148;DHT22;12309;51.450;-2.624;2023-08-08T14:16:22;19.80;99.90
24148;DHT22;12309;51.450;-2.624;2023-08-08T14:18:47;20.10;99.90
24148;DHT22;12309;51.450;-2.624;2023-08-08T14:21:14;19.70;99.90
24148;DHT22;12309;51.450;-2.624;2023-08-08T14:23:40;19.80;99.90
24148;DHT22;12309;51.450;-2.624;2023-08-08T14:26:05;19.90;99.90
24148;DHT22;12309;51.450;-2.624;2023-08-08T14:28:31;19.40;99.90
24148;DHT22;12309;51.450;-2.624;2023-08-08T14:33:22;19.80;99.90
24148;DHT22;12309;51.450;-2.624;2023-08-08T14:35:48;19.70;99.90
24148;DHT22;12309;51.450;-2.624;2023-08-08T14:38:14;19.90;99.90
24148;DHT22;12309;51.450;-2.624;2023-08-08T14:40:39;20.10;99.90
24148;DHT22;12309;51.450;-2.624;2023-08-08T14:43:05;20.20;99.90
24148;DHT22;12309;51.450;-2.624;2023-08-08T14:48:04;20.30;99.90
24148;DHT22;12309;51.450;-2.624;2023-08-08T14:50:30;20.10;99.90
24148;DHT22;12309;51.450;-2.624;2023-08-08T14:52:56;20.10;99.90
24148;DHT22;12309;51.450;-2.624;2023-08-08T14:55:21;20.00;99.90
24148;DHT22;12309;51.450;-2.624;2023-08-08T14:57:47;19.70;99.90
24148;DHT22;12309;51.450;-2.624;2023-08-08T15:00:13;19.80;99.90
24148;DHT22;12309;51.450;-2.624;2023-08-08T15:02:38;19.70;99.90
24148;DHT22;12309;51.450;-2.624;2023-08-08T15:05:04;19.80;99.90
24148;DHT22;12309;51.450;-2.624;2023-08-08T15:07:30;20.00;99.90
24148;DHT22;12309;51.450;-2.624;2023-08-08T15:09:56;20.70;99.90
24148;DHT22;12309;51.450;-2.624;2023-08-08T15:12:21;20.30;99.90
24148;DHT22;12309;51.450;-2.624;2023-08-08T15:14:47;20.30;99.90
24148;DHT22;12309;51.450;-2.624;2023-08-08T15:17:14;19.60;99.90
24148;DHT22;12309;51.450;-2.624;2023-08-08T15:19:40;20.20;99.90
24148;DHT22;12309;51.450;-2.624;2023-08-08T15:22:06;20.00;99.90
24148;DHT22;12309;51.450;-2.624;2023-08-08T15:24:32;20.10;99.90
24148;DHT22;12309;51.450;-2.624;2023-08-08T15:29:25;19.60;99.90
24148;DHT22;12309;51.450;-2.624;2023-08-08T15:31:50;20.20;99.90
24148;DHT22;12309;51.450;-2.624;2023-08-08T15:34:16;19.80;99.90
24148;DHT22;12309;51.450;-2.624;2023-08-08T15:36:42;19.40;99.90
24148;DHT22;12309;51.450;-2.624;2023-08-08T15:39:07;19.50;99.90
24148;DHT22;12309;51.450;-2.624;2023-08-08T15:41:33;20.10;99.90
24148;DHT22;12309;51.450;-2.624;2023-08-08T15:43:58;20.50;99.90
24148;DHT22;12309;51.450;-2.624;2023-08-08T15:46:24;20.40;99.90
24148;DHT22;12309;51.450;-2.624;2023-08-08T15:48:49;21.00;99.90
24148;DHT22;12309;51.450;-2.624;2023-08-08T15:51:15;21.40;99.90
24148;DHT22;12309;51.450;-2.624;2023-08-08T15:53:41;21.60;99.90
24148;DHT22;12309;51.450;-2.624;2023-08-08T15:56:06;21.20;99.90
24148;DHT22;12309;51.450;-2.624;2023-08-08T15:58:32;20.50;99.90
24148;DHT22;12309;51.450;-2.624;2023-08-08T16:00:58;20.00;99.90
24148;DHT22;12309;51.450;-2.624;2023-08-08T16:03:24;20.00;99.90
24148;DHT22;12309;51.450;-2.624;2023-08-08T16:05:50;19.90;99.90
24148;DHT22;12309;51.450;-2.624;2023-08-08T16:08:16;20.00;99.90
24148;DHT22;12309;51.450;-2.624;2023-08-08T16:10:41;20.10;99.90
24148;DHT22;12309;51.450;-2.624;2023-08-08T16:13:07;20.20;99.90
24148;DHT22;12309;51.450;-2.624;2023-08-08T16:15:33;20.00;99.90
24148;DHT22;12309;51.450;-2.624;2023-08-08T16:17:58;20.20;99.90
24148;DHT22;12309;51.450;-2.624;2023-08-08T16:20:24;19.80;99.90
24148;DHT22;12309;51.450;-2.624;2023-08-08T16:22:49;20.30;99.90
24148;DHT22;12309;51.450;-2.624;2023-08-08T16:25:15;20.50;99.90
24148;DHT22;12309;51.450;-2.624;2023-08-08T16:27:40;21.00;99.90
24148;DHT22;12309;51.450;-2.624;2023-08-08T16:30:07;21.60;99.90
24148;DHT22;12309;51.450;-2.624;2023-08-08T16:32:33;21.80;99.90
24148;DHT22;12309;51.450;-2.624;2023-08-08T16:34:59;21.40;99.90
24148;DHT22;12309;51.450;-2.624;2023-08-08T16:37:24;21.00;99.90
24148;DHT22;12309;51.450;-2.624;2023-08-08T16:42:16;20.70;99.90
24148;DHT22;12309;51.450;-2.624;2023-08-08T16:47:07;20.10;99.90
24148;DHT22;12309;51.450;-2.624;2023-08-08T16:49:33;19.80;99.90
24148;DHT22;12309;51.450;-2.624;2023-08-08T16:54:25;19.40;99.90
24148;DHT22;12309;51.450;-2.624;2023-08-08T16:56:51;19.20;99.90
24148;DHT22;12309;51.450;-2.624;2023-08-08T16:59:17;19.00;99.90
24148;DHT22;12309;51.450;-2.624;2023-08-08T17:01:42;19.10;99.90
24148;DHT22;12309;51.450;-2.624;2023-08-08T17:06:37;18.90;99.90
24148;DHT22;12309;51.450;-2.624;2023-08-08T17:09:03;19.10;99.90
24148;DHT22;12309;51.450;-2.624;2023-08-08T17:11:31;19.20;99.90
24148;DHT22;12309;51.450;-2.624;2023-08-08T17:16:23;19.40;99.90
24148;DHT22;12309;51.450;-2.624;2023-08-08T17:18:48;19.70;99.90
24148;DHT22;12309;51.450;-2.624;2023-08-08T17:21:14;19.70;99.90
24148;DHT22;12309;51.450;-2.624;2023-08-08T17:28:32;19.90;99.90
24148;DHT22;12309;51.450;-2.624;2023-08-08T17:33:24;19.70;99.90
24148;DHT22;12309;51.450;-2.624;2023-08-08T17:35:50;19.80;99.90
24148;DHT22;12309;51.450;-2.624;2023-08-08T17:40:42;19.50;99.90
24148;DHT22;12309;51.450;-2.624;2023-08-08T17:45:34;19.20;99.90
24148;DHT22;12309;51.450;-2.624;2023-08-08T17:57:44;18.90;99.90
24148;DHT22;12309;51.450;-2.624;2023-08-08T18:02:36;18.80;99.90
24148;DHT22;12309;51.450;-2.624;2023-08-08T18:05:03;19.20;99.90
24148;DHT22;12309;51.450;-2.624;2023-08-08T18:09:54;18.60;99.90
24148;DHT22;12309;51.450;-2.624;2023-08-08T18:22:06;18.90;99.90
24148;DHT22;12309;51.450;-2.624;2023-08-08T18:34:16;18.90;99.90
24148;DHT22;12309;51.450;-2.624;2023-08-08T18:41:36;18.60;99.90
24148;DHT22;12309;51.450;-2.624;2023-08-08T18:46:29;18.20;99.90
24148;DHT22;12309;51.450;-2.624;2023-08-08T18:48:55;18.30;99.90
24148;DHT22;12309;51.450;-2.624;2023-08-08T18:53:47;18.30;99.90
24148;DHT22;12309;51.450;-2.624;2023-08-08T18:58:38;18.30;99.90
24148;DHT22;12309;51.450;-2.624;2023-08-08T19:01:05;18.10;99.90
24148;DHT22;12309;51.450;-2.624;2023-08-08T19:03:31;18.10;99.90
24148;DHT22;12309;51.450;-2.624;2023-08-08T19:08:22;18.20;99.90
24148;DHT22;12309;51.450;-2.624;2023-08-08T19:13:14;18.00;99.90
24148;DHT22;12309;51.450;-2.624;2023-08-08T19:15:40;18.00;99.90
24148;DHT22;12309;51.450;-2.624;2023-08-08T19:20:31;18.10;99.90
24148;DHT22;12309;51.450;-2.624;2023-08-08T19:22:57;17.90;99.90
24148;DHT22;12309;51.450;-2.624;2023-08-08T19:25:23;18.00;99.90
24148;DHT22;12309;51.450;-2.624;2023-08-08T19:27:48;18.00;99.90
24148;DHT22;12309;51.450;-2.624;2023-08-08T19:30:14;17.80;99.90
24148;DHT22;12309;51.450;-2.624;2023-08-08T19:35:06;18.00;99.90
24148;DHT22;12309;51.450;-2.624;2023-08-08T19:37:31;17.90;99.90
24148;DHT22;12309;51.450;-2.624;2023-08-08T19:42:23;17.60;99.90
24148;DHT22;12309;51.450;-2.624;2023-08-08T19:44:49;17.90;99.90
24148;DHT22;12309;51.450;-2.624;2023-08-08T19:49:40;17.70;99.90
24148;DHT22;12309;51.450;-2.624;2023-08-08T19:52:06;17.50;99.90
24148;DHT22;12309;51.450;-2.624;2023-08-08T19:59:24;17.60;99.90
24148;DHT22;12309;51.450;-2.624;2023-08-08T20:09:08;17.60;99.90
24148;DHT22;12309;51.450;-2.624;2023-08-08T20:11:34;17.60;99.90
24148;DHT22;12309;51.450;-2.624;2023-08-08T20:14:02;17.50;99.90
24148;DHT22;12309;51.450;-2.624;2023-08-08T20:16:28;17.40;99.90
24148;DHT22;12309;51.450;-2.624;2023-08-08T20:18:55;17.50;99.90
24148;DHT22;12309;51.450;-2.624;2023-08-08T20:21:21;17.50;99.90
24148;DHT22;12309;51.450;-2.624;2023-08-08T20:23:46;17.60;99.90
24148;DHT22;12309;51.450;-2.624;2023-08-08T20:28:38;17.50;99.90
24148;DHT22;12309;51.450;-2.624;2023-08-08T20:31:06;17.40;99.90
24148;DHT22;12309;51.450;-2.624;2023-08-08T20:33:31;17.70;99.90
24148;DHT22;12309;51.450;-2.624;2023-08-08T20:38:23;17.40;99.90
24148;DHT22;12309;51.450;-2.624;2023-08-08T20:40:49;17.60;99.90
24148;DHT22;12309;51.450;-2.624;2023-08-08T20:45:42;17.50;99.90
24148;DHT22;12309;51.450;-2.624;2023-08-08T20:48:08;17.30;99.90
24148;DHT22;12309;51.450;-2.624;2023-08-08T20:52:59;17.70;99.90
24148;DHT22;12309;51.450;-2.624;2023-08-08T20:55:25;17.60;99.90
24148;DHT22;12309;51.450;-2.624;2023-08-08T20:57:51;17.60;99.90
24148;DHT22;12309;51.450;-2.624;2023-08-08T21:00:16;17.40;99.90
24148;DHT22;12309;51.450;-2.624;2023-08-08T21:02:42;17.50;99.90
24148;DHT22;12309;51.450;-2.624;2023-08-08T21:05:08;17.80;99.90
24148;DHT22;12309;51.450;-2.624;2023-08-08T21:07:34;17.60;99.90
24148;DHT22;12309;51.450;-2.624;2023-08-08T21:10:00;17.70;99.90
24148;DHT22;12309;51.450;-2.624;2023-08-08T21:12:25;17.50;99.90
24148;DHT22;12309;51.450;-2.624;2023-08-08T21:17:17;17.60;99.90
24148;DHT22;12309;51.450;-2.624;2023-08-08T21:19:43;17.60;99.90
24148;DHT22;12309;51.450;-2.624;2023-08-08T21:22:08;17.60;99.90